createdAt,value
2023-03-26T00:01:38.740Z,91548.97
2023-03-26T00:04:06.923Z,91538.53
2023-03-26T00:06:38.945Z,91542.19
2023-03-26T00:09:08.123Z,91540.00
2023-03-26T00:11:34.899Z,91540.53
2023-03-26T00:14:02.678Z,91533.75
2023-03-26T00:16:31.567Z,91530.28
2023-03-26T00:18:59.716Z,91520.56
2023-03-26T00:21:28.895Z,91516.91
2023-03-26T00:24:11.786Z,91520.94
2023-03-26T00:26:38.859Z,91534.50
2023-03-26T00:29:06.768Z,91536.31
2023-03-26T00:31:33.291Z,91535.22
2023-03-26T00:34:03.064Z,91533.75
2023-03-26T00:36:29.734Z,91517.06
2023-03-26T00:38:56.283Z,91523.13
2023-03-26T00:41:30.986Z,91514.16
2023-03-26T00:43:59.762Z,91509.56
2023-03-26T00:46:29.142Z,91513.59
2023-03-26T00:48:58.980Z,91509.22
2023-03-26T00:51:27.161Z,91504.28
2023-03-26T00:53:54.018Z,91504.97
2023-03-26T00:56:20.527Z,91507.53
2023-03-26T00:58:50.196Z,91514.34
2023-03-26T01:01:21.525Z,91513.59
2023-03-26T01:04:04.724Z,91509.94
2023-03-26T01:06:37.719Z,91506.66
2023-03-26T01:09:18.773Z,91498.97
2023-03-26T01:11:45.870Z,91492.72
2023-03-26T01:14:16.724Z,91485.75
2023-03-26T01:17:04.197Z,91481.00
2023-03-26T01:19:45.188Z,91483.19
2023-03-26T01:22:16.785Z,91481.00
2023-03-26T01:24:46.096Z,91479.53
2023-03-26T01:27:31.961Z,91479.38
2023-03-26T01:30:12.110Z,91487.59
2023-03-26T01:32:57.972Z,91476.63
2023-03-26T01:35:48.501Z,91480.81
2023-03-26T01:38:49.887Z,91479.91
2023-03-26T01:41:41.146Z,91478.06
2023-03-26T01:44:17.096Z,91479.19
2023-03-26T01:46:44.716Z,91467.81
2023-03-26T01:49:13.249Z,91471.88
2023-03-26T01:51:42.875Z,91473.31
2023-03-26T01:54:16.932Z,91466.38
2023-03-26T01:56:43.316Z,91467.63
2023-03-26T01:59:18.656Z,91468.94
2023-03-26T02:01:48.313Z,91474.06
2023-03-26T02:04:20.832Z,91478.81
2023-03-26T02:07:05.742Z,91476.44
2023-03-26T02:09:40.627Z,91478.47
2023-03-26T02:12:08.219Z,91481.94
2023-03-26T02:14:35.923Z,91475.53
2023-03-26T02:17:02.753Z,91462.69
2023-03-26T02:19:29.887Z,91469.66
2023-03-26T02:21:59.744Z,91457.56
2023-03-26T02:24:26.382Z,91458.88
2023-03-26T02:26:53.351Z,91460.50
2023-03-26T02:29:20.542Z,91462.31
2023-03-26T02:31:51.080Z,91454.44
2023-03-26T02:34:17.688Z,91452.06
2023-03-26T02:36:44.191Z,91443.66
2023-03-26T02:39:12.009Z,91447.84
2023-03-26T02:41:38.921Z,91437.78
2023-03-26T02:44:05.848Z,91449.13
2023-03-26T02:46:33.777Z,91437.03
2023-03-26T02:49:00.247Z,91439.22
2023-03-26T02:51:27.322Z,91441.09
2023-03-26T02:53:54.765Z,91439.78
2023-03-26T02:56:21.698Z,91449.13
2023-03-26T02:58:48.405Z,91436.50
2023-03-26T03:01:18.340Z,91426.78
2023-03-26T03:03:47.293Z,91423.88
2023-03-26T03:06:17.134Z,91408.50
2023-03-26T03:08:46.042Z,91386.53
2023-03-26T03:11:18.365Z,91386.16
2023-03-26T03:13:45.912Z,91397.88
2023-03-26T03:16:12.525Z,91402.81
2023-03-26T03:18:39.224Z,91390.56
2023-03-26T03:21:06.547Z,91385.78
2023-03-26T03:23:33.316Z,91388.34
2023-03-26T03:25:59.826Z,91380.31
2023-03-26T03:28:26.683Z,91379.97
2023-03-26T03:30:53.285Z,91373.00
2023-03-26T03:33:20.706Z,91362.38
2023-03-26T03:35:50.701Z,91363.81
2023-03-26T03:38:17.802Z,91360.53
2023-03-26T03:40:44.874Z,91349.56
2023-03-26T03:43:11.556Z,91350.28
2023-03-26T03:45:38.039Z,91350.28
2023-03-26T03:48:04.903Z,91351.00
2023-03-26T03:50:34.285Z,91339.28
2023-03-26T03:53:02.953Z,91329.03
2023-03-26T03:55:30.051Z,91333.09
2023-03-26T03:57:58.325Z,91334.91
2023-03-26T04:00:24.904Z,91338.59
2023-03-26T04:02:54.312Z,91341.16
2023-03-26T04:05:21.290Z,91338.22
2023-03-26T04:07:47.808Z,91337.50
2023-03-26T04:10:16.248Z,91330.53
2023-03-26T04:12:42.738Z,91328.34
2023-03-26T04:15:09.528Z,91318.13
2023-03-26T04:17:42.773Z,91304.38
2023-03-26T04:20:15.827Z,91289.91
2023-03-26T04:22:43.641Z,91292.47
2023-03-26T04:25:11.702Z,91287.72
2023-03-26T04:27:41.573Z,91287.34
2023-03-26T04:30:14.517Z,91279.28
2023-03-26T04:32:42.942Z,91265.38
2023-03-26T04:35:14.294Z,91263.34
2023-03-26T04:37:42.143Z,91260.81
2023-03-26T04:40:14.346Z,91259.53
2023-03-26T04:42:46.364Z,91256.97
2023-03-26T04:45:17.977Z,91259.88
2023-03-26T04:47:46.562Z,91254.41
2023-03-26T04:50:13.463Z,91248.91
2023-03-26T04:52:41.297Z,91244.88
2023-03-26T04:55:25.691Z,91249.63
2023-03-26T04:57:57.089Z,91243.41
2023-03-26T05:00:23.839Z,91246.16
2023-03-26T05:02:50.570Z,91248.91
2023-03-26T05:05:17.824Z,91243.41
2023-03-26T05:07:44.336Z,91241.56
2023-03-26T05:10:15.164Z,91245.97
2023-03-26T05:12:41.892Z,91246.38
2023-03-26T05:15:10.816Z,91254.41
2023-03-26T05:17:41.811Z,91246.34
2023-03-26T05:20:20.833Z,91257.66
2023-03-26T05:22:49.148Z,91250.72
2023-03-26T05:25:17.275Z,91250.34
2023-03-26T05:27:44.232Z,91252.75
2023-03-26T05:30:14.857Z,91245.06
2023-03-26T05:32:41.722Z,91250.72
2023-03-26T05:35:09.361Z,91242.31
2023-03-26T05:37:37.718Z,91237.56
2023-03-26T05:40:11.410Z,91231.91
2023-03-26T05:42:39.337Z,91240.13
2023-03-26T05:45:08.266Z,91223.31
2023-03-26T05:47:35.150Z,91214.88
2023-03-26T05:50:02.017Z,91212.31
2023-03-26T05:52:28.807Z,91208.31
2023-03-26T05:54:55.332Z,91199.88
2023-03-26T05:57:23.891Z,91195.84
2023-03-26T05:59:50.782Z,91195.13
2023-03-26T06:02:17.299Z,91197.72
2023-03-26T06:04:45.954Z,91189.47
2023-03-26T06:07:12.790Z,91194.97
2023-03-26T06:09:40.094Z,91199.88
2023-03-26T06:12:08.214Z,91176.44
2023-03-26T06:14:35.417Z,91183.41
2023-03-26T06:17:02.235Z,91173.88
2023-03-26T06:19:28.943Z,91178.66
2023-03-26T06:21:55.630Z,91178.28
2023-03-26T06:24:22.109Z,91164.00
2023-03-26T06:26:48.685Z,91170.03
2023-03-26T06:29:16.031Z,91160.34
2023-03-26T06:31:42.602Z,91143.50
2023-03-26T06:34:09.273Z,91142.06
2023-03-26T06:36:35.816Z,91130.72
2023-03-26T06:39:07.876Z,91125.25
2023-03-26T06:41:35.322Z,91099.66
2023-03-26T06:44:01.908Z,91099.25
2023-03-26T06:46:28.444Z,91089.00
2023-03-26T06:48:54.959Z,91076.00
2023-03-26T06:51:21.466Z,91095.22
2023-03-26T06:53:48.037Z,91095.22
2023-03-26T06:56:14.585Z,91089.72
2023-03-26T06:58:41.291Z,91098.53
2023-03-26T07:01:07.812Z,91093.78
2023-03-26T07:03:34.394Z,91082.06
2023-03-26T07:06:00.902Z,91080.03
2023-03-26T07:08:27.482Z,91086.81
2023-03-26T07:10:54.217Z,91074.56
2023-03-26T07:13:20.953Z,91080.22
2023-03-26T07:15:49.059Z,91071.25
2023-03-26T07:18:15.623Z,91068.13
2023-03-26T07:20:43.767Z,91051.63
2023-03-26T07:23:11.938Z,91047.41
2023-03-26T07:25:38.845Z,91036.28
2023-03-26T07:28:29.772Z,91017.63
2023-03-26T07:31:20.730Z,90988.16
2023-03-26T07:34:05.618Z,90981.22
2023-03-26T07:36:53.733Z,90959.44
2023-03-26T07:39:43.532Z,90951.19
2023-03-26T07:42:51.709Z,90944.75
2023-03-26T07:45:43.463Z,90953.47
2023-03-26T07:48:40.754Z,90958.16
2023-03-26T07:51:08.139Z,90950.25
2023-03-26T07:53:35.016Z,90958.81
2023-03-26T07:56:17.781Z,90970.16
2023-03-26T07:58:50.018Z,90958.81
2023-03-26T08:01:45.384Z,90951.88
2023-03-26T08:04:23.772Z,90944.94
2023-03-26T08:07:15.995Z,90929.75
2023-03-26T08:10:05.656Z,90913.13
2023-03-26T08:12:51.048Z,90918.59
2023-03-26T08:15:38.060Z,90912.94
2023-03-26T08:18:27.338Z,90912.94
2023-03-26T08:21:00.884Z,90908.72
2023-03-26T08:23:50.860Z,90888.22
2023-03-26T08:26:45.429Z,90882.56
2023-03-26T08:29:36.612Z,90878.69
2023-03-26T08:32:05.263Z,90867.72
2023-03-26T08:34:31.802Z,90865.13
2023-03-26T08:36:58.294Z,90871.34
2023-03-26T08:39:24.974Z,90868.78
2023-03-26T08:42:00.499Z,90877.00
2023-03-26T08:44:57.945Z,90876.28
2023-03-26T08:47:42.688Z,90883.06
2023-03-26T08:50:30.423Z,90883.06
2023-03-26T08:53:21.685Z,90883.78
2023-03-26T08:56:08.743Z,90888.56
2023-03-26T08:59:03.039Z,90877.56
2023-03-26T09:01:54.084Z,90868.03
2023-03-26T09:04:58.823Z,90868.03
2023-03-26T09:07:28.058Z,90853.00
2023-03-26T09:10:14.496Z,90840.75
2023-03-26T09:13:05.697Z,90826.44
2023-03-26T09:15:37.005Z,90813.59
2023-03-26T09:18:12.433Z,90794.38
2023-03-26T09:20:54.096Z,90789.59
2023-03-26T09:23:52.672Z,90784.84
2023-03-26T09:26:25.339Z,90787.00
2023-03-26T09:29:17.583Z,90779.66
2023-03-26T09:32:18.204Z,90770.69
2023-03-26T09:34:50.792Z,90760.59
2023-03-26T09:37:56.855Z,90766.81
2023-03-26T09:40:53.288Z,90772.63
2023-03-26T09:43:32.023Z,90774.78
2023-03-26T09:46:26.178Z,90772.03
2023-03-26T09:49:11.828Z,90770.03
2023-03-26T09:52:07.073Z,90761.22
2023-03-26T09:54:48.259Z,90764.38
2023-03-26T09:58:08.891Z,90751.38
2023-03-26T10:00:41.249Z,90750.63
2023-03-26T10:03:26.875Z,90752.09
2023-03-26T10:05:59.494Z,90755.41
2023-03-26T10:08:45.859Z,90766.38
2023-03-26T10:11:47.774Z,90762.19
2023-03-26T10:14:14.223Z,90767.84
2023-03-26T10:16:55.619Z,90755.41
2023-03-26T10:19:47.541Z,90759.47
2023-03-26T10:22:31.228Z,90756.53
2023-03-26T10:25:17.581Z,90751.06
2023-03-26T10:27:52.554Z,90756.53
2023-03-26T10:30:45.349Z,90771.88
2023-03-26T10:33:35.295Z,90758.31
2023-03-26T10:36:19.626Z,90755.72
2023-03-26T10:39:35.927Z,90749.81
2023-03-26T10:42:20.620Z,90750.88
2023-03-26T10:44:59.103Z,90746.81
2023-03-26T10:47:40.344Z,90749.56
2023-03-26T10:50:36.978Z,90755.38
2023-03-26T10:53:23.347Z,90754.81
2023-03-26T10:55:58.391Z,90768.00
2023-03-26T10:58:29.537Z,90768.00
2023-03-26T11:01:24.102Z,90769.13
2023-03-26T11:03:54.276Z,90767.66
2023-03-26T11:06:36.257Z,90762.34
2023-03-26T11:09:25.263Z,90767.09
2023-03-26T11:11:51.725Z,90758.13
2023-03-26T11:14:34.460Z,90744.22
2023-03-26T11:17:14.566Z,90770.25
2023-03-26T11:20:05.702Z,90756.53
2023-03-26T11:22:53.468Z,90763.28
2023-03-26T11:25:43.709Z,90759.28
2023-03-26T11:29:03.424Z,90752.31
2023-03-26T11:31:57.135Z,90748.13
2023-03-26T11:34:31.230Z,90741.88
2023-03-26T11:36:58.919Z,90751.28
2023-03-26T11:39:35.501Z,90753.28
2023-03-26T11:42:11.278Z,90747.97
2023-03-26T11:44:54.377Z,90733.34
2023-03-26T11:47:28.891Z,90726.41
2023-03-26T11:49:59.444Z,90725.66
2023-03-26T11:52:26.997Z,90722.34
2023-03-26T11:54:54.143Z,90722.91
2023-03-26T11:57:26.300Z,90729.31
2023-03-26T12:00:17.626Z,90719.03
2023-03-26T12:02:46.164Z,90742.31
2023-03-26T12:05:18.533Z,90733.34
2023-03-26T12:07:59.454Z,90741.81
2023-03-26T12:10:42.855Z,90729.41
2023-03-26T12:13:34.969Z,90748.78
2023-03-26T12:16:09.084Z,90740.38
2023-03-26T12:18:36.494Z,90732.97
2023-03-26T12:21:12.659Z,90742.50
2023-03-26T12:23:51.097Z,90747.44
2023-03-26T12:26:20.793Z,90743.97
2023-03-26T12:28:50.000Z,90748.72
2023-03-26T12:31:19.164Z,90740.06
2023-03-26T12:34:04.265Z,90744.41
2023-03-26T12:36:33.367Z,90750.63
2023-03-26T12:39:17.073Z,90754.69
2023-03-26T12:44:47.373Z,90739.50
2023-03-26T12:44:59.121Z,90731.66
2023-03-26T12:47:58.312Z,90765.78
2023-03-26T12:50:34.455Z,90780.81
2023-03-26T12:53:19.134Z,90778.06
2023-03-26T12:55:54.526Z,90790.31
2023-03-26T12:58:41.086Z,90794.38
2023-03-26T13:01:18.518Z,90770.13
2023-03-26T13:04:07.091Z,90800.91
2023-03-26T13:07:00.780Z,90805.53
2023-03-26T13:09:31.803Z,90800.03
2023-03-26T13:12:01.040Z,90808.28
2023-03-26T13:14:54.562Z,90812.47
2023-03-26T13:17:33.016Z,90815.22
2023-03-26T13:20:13.193Z,90811.16
2023-03-26T13:22:42.489Z,90808.56
2023-03-26T13:25:24.090Z,90806.56
2023-03-26T13:28:06.957Z,90810.03
2023-03-26T13:30:51.432Z,90816.97
2023-03-26T13:33:28.459Z,90807.59
2023-03-26T13:36:26.364Z,90801.69
2023-03-26T13:39:17.758Z,90815.59
2023-03-26T13:42:09.816Z,90819.81
2023-03-26T13:45:20.792Z,90823.13
2023-03-26T13:47:50.791Z,90825.72
2023-03-26T13:50:37.265Z,90835.22
2023-03-26T13:53:18.360Z,90831.19
2023-03-26T13:55:55.799Z,90827.16
2023-03-26T13:58:34.636Z,90833.78
2023-03-26T14:01:09.977Z,90833.78
2023-03-26T14:04:07.777Z,90829.44
2023-03-26T14:06:57.953Z,90829.44
2023-03-26T14:09:33.563Z,90833.47
2023-03-26T14:12:28.837Z,90827.97
2023-03-26T14:15:01.706Z,90816.97
2023-03-26T14:17:38.532Z,90802.66
2023-03-26T14:20:17.470Z,90802.66
2023-03-26T14:23:18.197Z,90803.25
2023-03-26T14:25:47.626Z,90812.22
2023-03-26T14:28:58.347Z,90815.53
2023-03-26T14:31:32.363Z,90810.03
2023-03-26T14:34:30.063Z,90822.31
2023-03-26T14:37:18.518Z,90845.75
2023-03-26T14:40:21.590Z,90849.94
2023-03-26T14:43:09.531Z,90848.50
2023-03-26T14:46:13.242Z,90835.88
2023-03-26T14:49:05.354Z,90840.09
2023-03-26T14:51:53.366Z,90839.69
2023-03-26T14:54:25.578Z,90833.47
2023-03-26T14:56:58.715Z,90838.94
2023-03-26T14:59:31.378Z,90836.03
2023-03-26T15:02:23.079Z,90834.59
2023-03-26T15:04:49.612Z,90841.38
2023-03-26T15:07:51.975Z,90827.63
2023-03-26T15:10:57.880Z,90816.66
2023-03-26T15:13:52.416Z,90787.75
2023-03-26T15:16:45.451Z,90787.75
2023-03-26T15:19:24.473Z,90778.78
2023-03-26T15:22:06.046Z,90773.84
2023-03-26T15:24:45.350Z,90761.44
2023-03-26T15:27:17.748Z,90758.09
2023-03-26T15:30:21.496Z,90746.38
2023-03-26T15:33:22.692Z,90748.25
2023-03-26T15:36:16.934Z,90748.00
2023-03-26T15:38:58.841Z,90750.47
2023-03-26T15:41:50.447Z,90745.31
2023-03-26T15:44:38.333Z,90737.06
2023-03-26T15:47:34.962Z,90727.94
2023-03-26T15:50:08.190Z,90722.44
2023-03-26T15:53:09.570Z,90733.59
2023-03-26T15:55:52.712Z,90740.38
2023-03-26T15:58:27.260Z,90737.06
2023-03-26T16:01:06.105Z,90734.16
2023-03-26T16:03:44.547Z,90722.44
2023-03-26T16:06:35.001Z,90723.19
2023-03-26T16:09:23.173Z,90712.19
2023-03-26T16:12:15.840Z,90708.56
2023-03-26T16:14:48.314Z,90703.50
2023-03-26T16:17:23.459Z,90702.75
2023-03-26T16:19:52.945Z,90701.28
2023-03-26T16:22:44.897Z,90675.72
2023-03-26T16:25:26.512Z,90664.00
2023-03-26T16:28:12.997Z,90652.28
2023-03-26T16:30:42.121Z,90647.34
2023-03-26T16:33:14.022Z,90639.13
2023-03-26T16:36:02.088Z,90640.59
2023-03-26T16:39:05.635Z,90640.59
2023-03-26T16:41:50.108Z,90627.56
2023-03-26T16:44:34.986Z,90631.03
2023-03-26T16:47:15.535Z,90624.41
2023-03-26T16:50:10.688Z,90624.41
2023-03-26T16:53:15.633Z,90618.91
2023-03-26T16:56:08.832Z,90602.44
2023-03-26T16:58:46.760Z,90602.28
2023-03-26T17:01:19.314Z,90614.56
2023-03-26T17:03:58.855Z,90614.41
2023-03-26T17:06:49.258Z,90610.97
2023-03-26T17:09:44.062Z,90599.25
2023-03-26T17:12:28.223Z,90588.25
2023-03-26T17:15:11.944Z,90597.22
2023-03-26T17:17:49.628Z,90607.63
2023-03-26T17:20:33.129Z,90607.63
2023-03-26T17:23:51.026Z,90609.66
2023-03-26T17:26:48.356Z,90617.16
2023-03-26T17:29:48.083Z,90625.22
2023-03-26T17:32:15.193Z,90627.81
2023-03-26T17:34:52.414Z,90652.41
2023-03-26T17:37:22.049Z,90679.13
2023-03-26T17:39:51.515Z,90694.13
2023-03-26T17:42:28.830Z,90697.63
2023-03-26T17:45:03.576Z,90710.63
2023-03-26T17:47:32.985Z,90726.38
2023-03-26T17:50:15.858Z,90734.47
2023-03-26T17:52:56.430Z,90712.50
2023-03-26T17:55:30.514Z,90711.91
2023-03-26T17:58:01.242Z,90717.81
2023-03-26T18:00:51.047Z,90714.91
2023-03-26T18:03:29.587Z,90717.81
2023-03-26T18:06:06.429Z,90726.06
2023-03-26T18:08:47.748Z,90726.38
2023-03-26T18:11:26.343Z,90715.41
2023-03-26T18:14:16.656Z,90719.34
2023-03-26T18:16:53.015Z,90702.13
2023-03-26T18:19:22.775Z,90699.53
2023-03-26T18:21:58.150Z,90703.59
2023-03-26T18:24:29.250Z,90712.00
2023-03-26T18:27:02.166Z,90705.91
2023-03-26T18:29:31.909Z,90704.31
2023-03-26T18:32:22.081Z,90688.56
2023-03-26T18:34:59.140Z,90677.56
2023-03-26T18:37:31.739Z,90681.63
2023-03-26T18:40:16.645Z,90686.97
2023-03-26T18:42:48.869Z,90693.44
2023-03-26T18:45:28.943Z,90689.38
2023-03-26T18:48:23.045Z,90693.44
2023-03-26T18:51:05.997Z,90701.97
2023-03-26T18:53:50.117Z,90719.00
2023-03-26T18:56:35.610Z,90716.69
2023-03-26T18:59:05.262Z,90715.06
2023-03-26T19:01:35.268Z,90708.16
2023-03-26T19:04:06.032Z,90707.41
2023-03-26T19:06:38.377Z,90717.66
2023-03-26T19:09:16.358Z,90713.63
2023-03-26T19:11:57.054Z,90712.34
2023-03-26T19:14:28.640Z,90720.00
2023-03-26T19:17:01.110Z,90727.50
2023-03-26T19:19:36.930Z,90730.13
2023-03-26T19:22:10.631Z,90728.66
2023-03-26T19:24:37.475Z,90738.19
2023-03-26T19:27:04.690Z,90742.22
2023-03-26T19:29:36.210Z,90746.25
2023-03-26T19:32:16.249Z,90744.09
2023-03-26T19:34:44.890Z,90748.84
2023-03-26T19:37:18.941Z,90746.84
2023-03-26T19:40:07.789Z,90744.78
2023-03-26T19:42:43.793Z,90744.09
2023-03-26T19:45:17.968Z,90742.06
2023-03-26T19:47:50.148Z,90740.44
2023-03-26T19:50:28.723Z,90742.63
2023-03-26T19:53:28.429Z,90744.50
2023-03-26T19:55:56.625Z,90747.41
2023-03-26T19:58:23.679Z,90751.44
2023-03-26T20:00:50.391Z,90751.44
2023-03-26T20:03:21.985Z,90752.00
2023-03-26T20:05:48.603Z,90748.53
2023-03-26T20:08:16.568Z,90747.09
2023-03-26T20:10:43.179Z,90749.81
2023-03-26T20:13:16.865Z,90746.91
2023-03-26T20:16:07.469Z,90742.88
2023-03-26T20:18:34.842Z,90738.69
2023-03-26T20:21:01.353Z,90745.63
2023-03-26T20:23:28.998Z,90744.19
2023-03-26T20:25:55.946Z,90744.19
2023-03-26T20:28:24.444Z,90738.69
2023-03-26T20:30:54.264Z,90748.19
2023-03-26T20:33:25.561Z,90751.09
2023-03-26T20:35:56.765Z,90744.91
2023-03-26T20:38:36.704Z,90742.72
2023-03-26T20:41:07.087Z,90739.81
2023-03-26T20:43:33.582Z,90742.72
2023-03-26T20:46:00.633Z,90734.34
2023-03-26T20:48:27.190Z,90740.13
2023-03-26T20:50:54.076Z,90730.59
2023-03-26T20:53:20.942Z,90728.03
2023-03-26T20:55:48.280Z,90728.03
2023-03-26T20:58:18.164Z,90727.38
2023-03-26T21:01:00.481Z,90736.81
2023-03-26T21:03:27.202Z,90733.19
2023-03-26T21:05:53.768Z,90740.13
2023-03-26T21:08:20.595Z,90735.78
2023-03-26T21:10:47.739Z,90735.78
2023-03-26T21:13:20.044Z,90732.88
2023-03-26T21:15:46.942Z,90736.19
2023-03-26T21:18:13.849Z,90739.50
2023-03-26T21:20:41.949Z,90740.06
2023-03-26T21:23:31.279Z,90742.81
2023-03-26T21:26:17.310Z,90736.59
2023-03-26T21:28:47.722Z,90751.63
2023-03-26T21:31:20.795Z,90750.16
2023-03-26T21:33:49.350Z,90754.19
2023-03-26T21:36:18.108Z,90746.53
2023-03-26T21:38:45.535Z,90743.06
2023-03-26T21:41:24.350Z,90740.31
2023-03-26T21:43:51.472Z,90728.59
2023-03-26T21:46:18.750Z,90720.22
2023-03-26T21:48:45.688Z,90725.00
2023-03-26T21:51:14.791Z,90728.84
2023-03-26T21:53:42.984Z,90738.53
2023-03-26T21:56:33.988Z,90741.47
2023-03-26T21:59:23.687Z,90733.34
2023-03-26T22:02:14.934Z,90722.94
2023-03-26T22:04:56.415Z,90722.78
2023-03-26T22:07:34.104Z,90729.56
2023-03-26T22:10:00.605Z,90723.19
2023-03-26T22:12:27.084Z,90723.19
2023-03-26T22:14:53.550Z,90723.94
2023-03-26T22:17:20.080Z,90721.03
2023-03-26T22:19:46.563Z,90721.75
2023-03-26T22:22:13.057Z,90721.75
2023-03-26T22:24:39.526Z,90719.75
2023-03-26T22:27:07.806Z,90717.00
2023-03-26T22:29:34.310Z,90719.00
2023-03-26T22:32:00.883Z,90721.75
2023-03-26T22:34:27.391Z,90725.78
2023-03-26T22:36:53.908Z,90721.59
2023-03-26T22:39:20.410Z,90718.84
2023-03-26T22:41:46.906Z,90720.84
2023-03-26T22:44:20.302Z,90722.91
2023-03-26T22:46:49.398Z,90713.34
2023-03-26T22:49:16.787Z,90711.59
2023-03-26T22:51:43.574Z,90715.19
2023-03-26T22:54:10.310Z,90715.94
2023-03-26T22:56:37.261Z,90713.03
2023-03-26T22:59:03.964Z,90709.00
2023-03-26T23:01:30.582Z,90710.28
2023-03-26T23:03:57.925Z,90710.44
2023-03-26T23:06:25.108Z,90709.00
2023-03-26T23:08:51.705Z,90709.00
2023-03-26T23:11:20.374Z,90710.28
2023-03-26T23:13:47.902Z,90710.13
2023-03-26T23:16:16.173Z,90712.88
2023-03-26T23:18:43.936Z,90711.44
2023-03-26T23:21:19.547Z,90713.59
2023-03-26T23:23:47.501Z,90716.34
2023-03-26T23:26:14.926Z,90717.81
2023-03-26T23:28:41.763Z,90723.84
2023-03-26T23:31:10.161Z,90722.56
2023-03-26T23:33:38.997Z,90712.31
2023-03-26T23:36:10.779Z,90704.22
2023-03-26T23:38:44.040Z,90713.34
2023-03-26T23:41:15.118Z,90720.84
2023-03-26T23:43:53.768Z,90715.19
2023-03-26T23:46:26.034Z,90711.75
2023-03-26T23:48:53.004Z,90714.50
2023-03-26T23:51:20.955Z,90709.00
2023-03-26T23:53:49.231Z,90707.53
2023-03-26T23:56:16.294Z,90710.00
2023-03-26T23:58:42.995Z,90713.44
